Time,TemperatureF,DewpointF,PressureIn,WindDirection,WindDirectionDegrees,WindSpeedMPH,WindSpeedGustMPH,Humidity,HourlyPrecipIn,Conditions,Clouds,dailyrainin,SoftwareType,DateUTC
2013-05-23 00:01:00,70.4,62.1,29.49,South,173,7.0,7.0,75,0.00,RA,,0.00,WeatherDisplay:10.37,2013-05-23 04:01:00,
2013-05-23 00:03:00,70.4,62.1,29.50,South,169,10.4,10.4,75,0.00,RA,,0.00,WeatherDisplay:10.37,2013-05-23 04:03:00,
2013-05-23 00:04:00,70.4,62.1,29.50,SSW,196,10.4,10.4,75,0.00,RA,,0.00,WeatherDisplay:10.37,2013-05-23 04:04:00,
2013-05-23 00:09:00,70.7,61.6,29.49,South,182,13.8,13.8,73,0.00,RA,,0.00,WeatherDisplay:10.37,2013-05-23 04:09:00,
2013-05-23 00:14:00,71.0,61.5,29.50,South,175,11.5,11.5,72,0.00,CLR,,0.00,WeatherDisplay:10.37,2013-05-23 04:14:00,
2013-05-23 00:19:00,71.2,61.3,29.50,South,182,12.7,12.7,71,0.00,CLR,,0.00,WeatherDisplay:10.37,2013-05-23 04:19:00,
2013-05-23 00:24:00,71.5,61.2,29.50,SSE,149,13.8,13.8,70,0.00,CLR,,0.00,WeatherDisplay:10.37,2013-05-23 04:24:00,
2013-05-23 00:29:00,71.5,60.8,29.50,SSE,161,12.7,12.7,69,0.00,CLR,,0.00,WeatherDisplay:10.37,2013-05-23 04:29:00,
2013-05-23 00:34:00,71.4,61.1,29.50,South,170,9.2,9.2,70,0.00,CLR,,0.00,WeatherDisplay:10.37,2013-05-23 04:34:00,
2013-05-23 00:39:00,71.1,60.8,29.50,SSE,165,11.5,11.5,70,0.00,CLR,,0.00,WeatherDisplay:10.37,2013-05-23 04:39:00,
2013-05-23 00:44:00,70.7,60.4,29.50,SE,146,9.2,9.2,70,0.00,CLR,,0.00,WeatherDisplay:10.37,2013-05-23 04:44:00,
2013-05-23 00:49:00,70.5,60.6,29.50,South,172,9.2,9.2,71,0.00,CLR,,0.00,WeatherDisplay:10.37,2013-05-23 04:49:00,
2013-05-23 00:54:00,70.5,60.6,29.50,SSE,167,10.4,10.4,71,0.00,CLR,,0.00,WeatherDisplay:10.37,2013-05-23 04:54:00,
2013-05-23 00:59:00,70.4,60.5,29.50,South,178,7.0,7.0,71,0.00,CLR,,0.00,WeatherDisplay:10.37,2013-05-23 04:59:00,
2013-05-23 01:04:00,70.3,60.4,29.50,South,174,11.5,11.5,71,0.00,CLR,,0.00,WeatherDisplay:10.37,2013-05-23 05:04:00,
2013-05-23 01:09:00,70.4,60.5,29.50,South,188,11.5,11.5,71,0.00,CLR,,0.00,WeatherDisplay:10.37,2013-05-23 05:09:00,
2013-05-23 01:14:00,70.4,60.5,29.50,South,176,15.0,15.0,71,0.00,CLR,,0.00,WeatherDisplay:10.37,2013-05-23 05:14:00,
2013-05-23 01:19:00,70.4,60.5,29.50,SSE,155,11.0,11.0,71,0.00,CLR,,0.00,WeatherDisplay:10.37,2013-05-23 05:19:00,
2013-05-23 01:24:00,70.3,60.4,29.50,SSE,161,16.1,16.1,71,0.00,CLR,,0.00,WeatherDisplay:10.37,2013-05-23 05:24:00,
2013-05-23 01:29:00,70.3,60.4,29.50,South,176,14.0,14.0,71,0.00,CLR,,0.00,WeatherDisplay:10.37,2013-05-23 05:29:00,
2013-05-23 01:34:00,70.2,60.4,29.50,South,176,14.0,14.0,71,0.00,CLR,,0.00,WeatherDisplay:10.37,2013-05-23 05:34:00,
2013-05-23 01:39:00,70.1,60.7,29.49,SSE,158,15.0,15.0,72,0.00,CLR,,0.00,WeatherDisplay:10.37,2013-05-23 05:39:00,
2013-05-23 01:44:00,69.9,60.5,29.49,SE,136,9.2,9.2,72,0.00,CLR,,0.00,WeatherDisplay:10.37,2013-05-23 05:44:00,
2013-05-23 01:49:00,69.8,60.4,29.49,ESE,105,9.2,9.2,72,0.00,CLR,,0.00,WeatherDisplay:10.37,2013-05-23 05:49:00,
2013-05-23 01:54:00,69.7,60.3,29.49,SSE,166,11.5,11.5,72,0.00,CLR,,0.00,WeatherDisplay:10.37,2013-05-23 05:54:00,
2013-05-23 01:59:00,69.6,60.6,29.48,SSE,148,9.0,9.0,73,0.00,CLR,,0.00,WeatherDisplay:10.37,2013-05-23 05:59:00,
2013-05-23 02:05:00,69.4,60.4,29.48,SE,132,9.2,9.2,73,0.00,CLR,,0.00,WeatherDisplay:10.37,2013-05-23 06:05:00,
2013-05-23 02:10:00,69.2,60.2,29.48,SSE,155,9.0,9.0,73,0.00,CLR,,0.00,WeatherDisplay:10.37,2013-05-23 06:10:00,
2013-05-23 02:15:00,69.1,60.5,29.48,SE,132,5.8,5.8,74,0.00,CLR,,0.00,WeatherDisplay:10.37,2013-05-23 06:15:00,
2013-05-23 02:20:00,68.8,60.6,29.48,SE,135,4.0,4.0,75,0.00,CLR,,0.00,WeatherDisplay:10.37,2013-05-23 06:20:00,
2013-05-23 02:25:00,68.3,60.4,29.48,SSE,159,4.6,4.6,76,0.00,CLR,,0.00,WeatherDisplay:10.37,2013-05-23 06:25:00,
2013-05-23 02:30:00,67.9,60.1,29.47,SE,130,9.0,9.0,76,0.00,CLR,,0.00,WeatherDisplay:10.37,2013-05-23 06:30:00,
2013-05-23 02:35:00,67.7,60.2,29.47,SE,145,5.8,5.8,77,0.00,CLR,,0.00,WeatherDisplay:10.37,2013-05-23 06:35:00,
2013-05-23 02:40:00,68.0,60.2,29.47,SSE,153,13.0,13.0,76,0.00,CLR,,0.00,WeatherDisplay:10.37,2013-05-23 06:40:00,
2013-05-23 02:45:00,69.2,59.8,29.47,South,190,15.0,15.0,72,0.00,CLR,,0.00,WeatherDisplay:10.37,2013-05-23 06:45:00,
2013-05-23 02:50:00,70.4,59.7,29.46,SSE,167,12.0,12.0,69,0.00,CLR,,0.00,WeatherDisplay:10.37,2013-05-23 06:50:00,
2013-05-23 02:55:00,70.9,59.8,29.47,South,175,15.0,15.0,68,0.00,CLR,,0.00,WeatherDisplay:10.37,2013-05-23 06:55:00,
2013-05-23 03:00:00,71.0,59.9,29.46,SSE,167,15.0,15.0,68,0.00,CLR,,0.00,WeatherDisplay:10.37,2013-05-23 07:00:00,
2013-05-23 03:05:00,71.0,59.9,29.46,South,190,11.5,11.5,68,0.00,CLR,,0.00,WeatherDisplay:10.37,2013-05-23 07:05:00,
2013-05-23 03:10:00,71.0,60.3,29.47,SSW,200,11.5,11.5,69,0.00,CLR,,0.00,WeatherDisplay:10.37,2013-05-23 07:10:00,
2013-05-23 03:15:00,70.9,59.8,29.46,SSW,209,8.1,8.1,68,0.00,CLR,,0.00,WeatherDisplay:10.37,2013-05-23 07:15:00,
2013-05-23 03:20:00,70.7,60.0,29.47,SSW,205,6.0,6.0,69,0.00,CLR,,0.00,WeatherDisplay:10.37,2013-05-23 07:20:00,
2013-05-23 03:25:00,70.7,60.0,29.47,SW,218,5.0,5.0,69,0.00,CLR,,0.00,WeatherDisplay:10.37,2013-05-23 07:25:00,
2013-05-23 03:30:00,70.4,60.1,29.47,SW,216,3.5,3.5,70,0.00,CLR,,0.00,WeatherDisplay:10.37,2013-05-23 07:30:00,
2013-05-23 03:35:00,70.4,59.7,29.47,SW,219,3.5,3.5,69,0.00,CLR,,0.00,WeatherDisplay:10.37,2013-05-23 07:35:00,
2013-05-23 03:40:00,70.5,59.8,29.47,SSW,200,3.0,3.0,69,0.00,CLR,,0.00,WeatherDisplay:10.37,2013-05-23 07:40:00,
2013-05-23 03:45:00,70.4,60.1,29.47,SSW,200,2.3,0.0,70,0.00,CLR,,0.00,WeatherDisplay:10.37,2013-05-23 07:45:00,
2013-05-23 03:50:00,70.2,60.0,29.47,SSW,205,3.5,3.5,70,0.00,CLR,,0.00,WeatherDisplay:10.37,2013-05-23 07:50:00,
2013-05-23 03:55:00,70.3,60.1,29.47,SSW,199,3.5,3.5,70,0.00,CLR,,0.00,WeatherDisplay:10.37,2013-05-23 07:55:00,
2013-05-23 04:00:00,70.0,59.8,29.47,SSW,199,3.5,3.5,70,0.00,CLR,,0.00,WeatherDisplay:10.37,2013-05-23 08:00:00,
2013-05-23 04:05:00,70.0,59.8,29.47,SW,232,5.0,5.0,70,0.00,CLR,,0.00,WeatherDisplay:10.37,2013-05-23 08:05:00,
2013-05-23 04:10:00,70.1,59.9,29.47,SW,232,4.0,4.0,70,0.00,CLR,,0.00,WeatherDisplay:10.37,2013-05-23 08:10:00,
2013-05-23 04:15:00,70.1,59.5,29.47,WSW,238,5.8,5.8,69,0.00,CLR,,0.00,WeatherDisplay:10.37,2013-05-23 08:15:00,
2013-05-23 04:20:00,70.2,60.0,29.47,SSW,204,4.6,4.6,70,0.00,CLR,,0.00,WeatherDisplay:10.37,2013-05-23 08:20:00,
2013-05-23 04:25:00,69.9,59.7,29.48,South,179,6.9,6.9,70,0.00,CLR,,0.00,WeatherDisplay:10.37,2013-05-23 08:25:00,
2013-05-23 04:30:00,70.2,59.6,29.48,South,171,6.0,6.0,69,0.00,CLR,,0.00,WeatherDisplay:10.37,2013-05-23 08:30:00,
2013-05-23 04:35:00,70.5,59.8,29.47,South,186,5.0,5.0,69,0.00,CLR,,0.00,WeatherDisplay:10.37,2013-05-23 08:35:00,
2013-05-23 04:40:00,70.6,59.5,29.47,South,191,6.9,6.9,68,0.00,CLR,,0.00,WeatherDisplay:10.37,2013-05-23 08:40:00,
2013-05-23 04:45:00,70.6,59.5,29.48,South,181,6.9,6.9,68,0.00,CLR,,0.00,WeatherDisplay:10.37,2013-05-23 08:45:00,
2013-05-23 04:50:00,70.4,59.7,29.48,South,176,10.0,10.0,69,0.00,CLR,,0.00,WeatherDisplay:10.37,2013-05-23 08:50:00,
2013-05-23 04:55:00,70.2,60.0,29.48,South,178,11.5,11.5,70,0.00,CLR,,0.00,WeatherDisplay:10.37,2013-05-23 08:55:00,
2013-05-23 05:00:00,70.1,59.9,29.48,South,171,11.5,11.5,70,0.00,CLR,,0.00,WeatherDisplay:10.37,2013-05-23 09:00:00,
2013-05-23 05:05:00,69.8,60.0,29.48,South,173,8.1,8.1,71,0.00,CLR,,0.00,WeatherDisplay:10.37,2013-05-23 09:05:00,
2013-05-23 05:10:00,69.7,60.3,29.48,South,170,8.1,8.1,72,0.00,CLR,,0.00,WeatherDisplay:10.37,2013-05-23 09:10:00,
2013-05-23 05:15:00,69.4,60.4,29.48,SSW,192,9.0,9.0,73,0.00,CLR,,0.00,WeatherDisplay:10.37,2013-05-23 09:15:00,
2013-05-23 05:20:00,69.2,60.6,29.48,SSE,168,5.0,5.0,74,0.00,CLR,,0.00,WeatherDisplay:10.37,2013-05-23 09:20:00,
2013-05-23 05:25:00,68.8,60.6,29.48,SSE,166,6.0,6.0,75,0.00,CLR,,0.00,WeatherDisplay:10.37,2013-05-23 09:25:00,
2013-05-23 05:30:00,68.6,60.4,29.49,SSE,166,8.1,8.1,75,0.00,CLR,,0.00,WeatherDisplay:10.37,2013-05-23 09:30:00,
2013-05-23 05:35:00,68.5,60.6,29.49,SSE,156,4.6,4.6,76,0.00,CLR,,0.00,WeatherDisplay:10.37,2013-05-23 09:35:00,
2013-05-23 05:40:00,68.2,60.7,29.49,SSE,150,1.2,0.0,77,0.00,CLR,,0.00,WeatherDisplay:10.37,2013-05-23 09:40:00,
2013-05-23 05:45:00,67.6,60.5,29.49,SE,138,2.3,2.3,78,0.00,CLR,,0.00,WeatherDisplay:10.37,2013-05-23 09:45:00,
2013-05-23 05:50:00,67.3,60.6,29.49,SSE,147,4.0,4.0,79,0.00,CLR,,0.00,WeatherDisplay:10.37,2013-05-23 09:50:00,
2013-05-23 05:55:00,67.1,60.7,29.50,SE,137,3.5,3.5,80,0.00,CLR,,0.00,WeatherDisplay:10.37,2013-05-23 09:55:00,
2013-05-23 06:00:00,66.9,60.9,29.50,SE,138,2.3,2.3,81,0.00,CLR,,0.00,WeatherDisplay:10.37,2013-05-23 10:00:00,
2013-05-23 06:05:00,66.8,60.8,29.50,SE,134,5.0,5.0,81,0.00,CLR,,0.00,WeatherDisplay:10.37,2013-05-23 10:05:00,
2013-05-23 06:10:00,66.8,60.8,29.50,SE,136,3.5,3.5,81,0.00,CLR,,0.00,WeatherDisplay:10.37,2013-05-23 10:10:00,
2013-05-23 06:15:00,66.8,60.8,29.50,ESE,117,6.9,6.9,81,0.00,CLR,,0.00,WeatherDisplay:10.37,2013-05-23 10:15:00,
2013-05-23 06:20:00,66.8,61.1,29.50,SE,126,6.0,6.0,82,0.00,CLR,,0.00,WeatherDisplay:10.37,2013-05-23 10:20:00,
2013-05-23 06:25:00,66.8,61.1,29.50,ESE,122,6.9,6.9,82,0.00,CLR,,0.00,WeatherDisplay:10.37,2013-05-23 10:25:00,
2013-05-23 06:30:00,66.9,61.2,29.51,SSE,149,8.1,8.1,82,0.00,CLR,,0.00,WeatherDisplay:10.37,2013-05-23 10:30:00,
2013-05-23 06:35:00,67.0,61.0,29.51,SE,128,5.8,5.8,81,0.00,CLR,,0.00,WeatherDisplay:10.37,2013-05-23 10:35:00,
2013-05-23 06:40:00,67.2,61.2,29.51,SE,138,4.0,4.0,81,0.00,CLR,,0.00,WeatherDisplay:10.37,2013-05-23 10:40:00,
2013-05-23 06:45:00,67.2,61.2,29.51,SE,131,5.0,5.0,81,0.00,CLR,,0.00,WeatherDisplay:10.37,2013-05-23 10:45:00,
2013-05-23 06:50:00,67.2,61.2,29.51,SE,138,3.5,3.5,81,0.00,CLR,,0.00,WeatherDisplay:10.37,2013-05-23 10:50:00,
2013-05-23 06:55:00,67.3,61.3,29.51,SSE,163,7.0,7.0,81,0.00,CLR,,0.00,WeatherDisplay:10.37,2013-05-23 10:55:00,
2013-05-23 07:00:00,67.4,61.4,29.52,ESE,109,5.8,5.8,81,0.00,CLR,,0.00,WeatherDisplay:10.37,2013-05-23 11:00:00,
2013-05-23 07:05:00,67.3,61.3,29.52,SSE,167,6.9,6.9,81,0.00,CLR,,0.00,WeatherDisplay:10.37,2013-05-23 11:05:00,
2013-05-23 07:10:00,67.2,61.5,29.52,SE,143,3.5,3.5,82,0.01,RA,,0.01,WeatherDisplay:10.37,2013-05-23 11:10:00,
2013-05-23 07:15:00,66.9,61.6,29.52,SE,131,5.0,5.0,83,0.02,RA,,0.02,WeatherDisplay:10.37,2013-05-23 11:15:00,
2013-05-23 07:20:00,66.8,61.8,29.51,SSE,153,8.1,8.1,84,0.02,RA,,0.02,WeatherDisplay:10.37,2013-05-23 11:20:00,
2013-05-23 07:25:00,66.7,61.7,29.52,SE,128,6.0,6.0,84,0.02,CLR,,0.02,WeatherDisplay:10.37,2013-05-23 11:25:00,
2013-05-23 07:30:00,66.5,62.2,29.52,SSE,154,8.1,8.1,86,0.02,CLR,,0.02,WeatherDisplay:10.37,2013-05-23 11:30:00,
2013-05-23 07:35:00,66.4,61.8,29.51,SSE,163,9.2,9.2,85,0.02,CLR,,0.02,WeatherDisplay:10.37,2013-05-23 11:35:00,
2013-05-23 07:40:00,66.3,62.0,29.51,SSE,163,11.5,11.5,86,0.02,CLR,,0.02,WeatherDisplay:10.37,2013-05-23 11:40:00,
2013-05-23 07:45:00,66.3,62.0,29.51,SE,124,6.9,6.9,86,0.02,CLR,,0.02,WeatherDisplay:10.37,2013-05-23 11:45:00,
2013-05-23 07:50:00,66.4,62.1,29.50,ESE,119,7.0,7.0,86,0.02,CLR,,0.02,WeatherDisplay:10.37,2013-05-23 11:50:00,
2013-05-23 07:55:00,66.5,62.5,29.50,SE,141,8.1,8.1,87,0.02,CLR,,0.02,WeatherDisplay:10.37,2013-05-23 11:55:00,
2013-05-23 08:00:00,66.6,62.6,29.50,SSE,147,11.5,11.5,87,0.02,CLR,,0.02,WeatherDisplay:10.37,2013-05-23 12:00:00,
2013-05-23 08:05:00,66.6,62.3,29.50,SE,130,9.2,9.2,86,0.02,CLR,,0.02,WeatherDisplay:10.37,2013-05-23 12:05:00,
2013-05-23 08:10:00,66.7,62.0,29.50,SSE,153,10.4,10.4,85,0.01,CLR,,0.02,WeatherDisplay:10.37,2013-05-23 12:10:00,
2013-05-23 08:15:00,66.7,62.0,29.50,SE,130,11.0,11.0,85,0.00,CLR,,0.02,WeatherDisplay:10.37,2013-05-23 12:15:00,
2013-05-23 08:20:00,66.8,62.1,29.50,SE,130,8.1,8.1,85,0.00,CLR,,0.02,WeatherDisplay:10.37,2013-05-23 12:20:00,
2013-05-23 08:25:00,66.8,62.1,29.51,SSE,150,6.0,6.0,85,0.00,CLR,,0.02,WeatherDisplay:10.37,2013-05-23 12:25:00,
2013-05-23 08:30:00,66.8,62.1,29.51,SE,139,5.8,5.8,85,0.00,CLR,,0.02,WeatherDisplay:10.37,2013-05-23 12:30:00,
2013-05-23 08:35:00,67.0,62.0,29.51,South,175,6.0,6.0,84,0.00,CLR,,0.02,WeatherDisplay:10.37,2013-05-23 12:35:00,
2013-05-23 08:40:00,67.0,62.0,29.52,South,169,5.8,5.8,84,0.00,CLR,,0.02,WeatherDisplay:10.37,2013-05-23 12:40:00,
2013-05-23 08:45:00,67.0,62.0,29.52,South,171,5.8,5.8,84,0.00,CLR,,0.02,WeatherDisplay:10.37,2013-05-23 12:45:00,
2013-05-23 08:50:00,67.1,62.4,29.52,South,169,4.0,4.0,85,0.00,CLR,,0.02,WeatherDisplay:10.37,2013-05-23 12:50:00,
2013-05-23 08:55:00,67.2,62.2,29.53,South,188,8.0,8.0,84,0.00,CLR,,0.02,WeatherDisplay:10.37,2013-05-23 12:55:00,
2013-05-23 09:00:00,67.3,62.0,29.53,South,169,8.1,8.1,83,0.00,CLR,,0.02,WeatherDisplay:10.37,2013-05-23 13:00:00,
2013-05-23 09:05:00,67.5,62.2,29.53,South,186,11.0,11.0,83,0.00,CLR,,0.02,WeatherDisplay:10.37,2013-05-23 13:05:00,
2013-05-23 09:10:00,67.6,62.3,29.53,South,176,10.4,10.4,83,0.00,CLR,,0.02,WeatherDisplay:10.37,2013-05-23 13:10:00,
2013-05-23 09:15:00,67.7,62.3,29.53,SSE,163,8.1,8.1,83,0.00,CLR,,0.02,WeatherDisplay:10.37,2013-05-23 13:15:00,
2013-05-23 09:20:00,67.6,62.3,29.53,ESE,111,7.0,7.0,83,0.00,CLR,,0.02,WeatherDisplay:10.37,2013-05-23 13:20:00,
2013-05-23 09:25:00,67.5,62.5,29.53,South,169,6.0,6.0,84,0.00,CLR,,0.02,WeatherDisplay:10.37,2013-05-23 13:25:00,
2013-05-23 09:30:00,67.4,62.4,29.53,SE,126,9.2,9.2,84,0.00,CLR,,0.02,WeatherDisplay:10.37,2013-05-23 13:30:00,
2013-05-23 09:35:00,67.4,62.4,29.52,SSE,165,8.1,8.1,84,0.00,CLR,,0.02,WeatherDisplay:10.37,2013-05-23 13:35:00,
2013-05-23 09:40:00,67.4,62.4,29.52,SSE,163,6.9,6.9,84,0.00,CLR,,0.02,WeatherDisplay:10.37,2013-05-23 13:40:00,
2013-05-23 09:45:00,67.6,62.6,29.52,SSE,159,10.4,10.4,84,0.00,CLR,,0.02,WeatherDisplay:10.37,2013-05-23 13:45:00,
2013-05-23 09:50:00,67.8,62.8,29.52,SE,146,6.0,6.0,84,0.00,CLR,,0.02,WeatherDisplay:10.37,2013-05-23 13:50:00,
2013-05-23 09:55:00,68.0,63.0,29.52,SSE,160,8.1,8.1,84,0.00,CLR,,0.02,WeatherDisplay:10.37,2013-05-23 13:55:00,
2013-05-23 10:00:00,68.2,62.8,29.52,South,170,11.5,11.5,83,0.00,CLR,,0.02,WeatherDisplay:10.37,2013-05-23 14:00:00,
2013-05-23 10:05:00,68.4,63.4,29.51,SSE,160,9.2,9.2,84,0.00,CLR,,0.02,WeatherDisplay:10.37,2013-05-23 14:05:00,
2013-05-23 10:10:00,68.6,63.2,29.51,SE,146,9.2,9.2,83,0.00,CLR,,0.02,WeatherDisplay:10.37,2013-05-23 14:10:00,
2013-05-23 10:15:00,68.7,63.3,29.51,SSW,192,12.0,12.0,83,0.00,CLR,,0.02,WeatherDisplay:10.37,2013-05-23 14:15:00,
2013-05-23 10:20:00,68.7,63.3,29.51,South,171,12.0,12.0,83,0.00,CLR,,0.02,WeatherDisplay:10.37,2013-05-23 14:20:00,
2013-05-23 10:25:00,69.1,63.4,29.51,SSE,162,6.9,6.9,82,0.00,CLR,,0.02,WeatherDisplay:10.37,2013-05-23 14:25:00,
2013-05-23 10:30:00,69.3,63.6,29.52,South,169,7.0,7.0,82,0.00,CLR,,0.02,WeatherDisplay:10.37,2013-05-23 14:30:00,
2013-05-23 10:35:00,69.5,63.4,29.52,SSE,166,9.2,9.2,81,0.00,CLR,,0.02,WeatherDisplay:10.37,2013-05-23 14:35:00,
2013-05-23 10:40:00,70.1,64.0,29.52,SE,129,6.0,6.0,81,0.00,CLR,,0.02,WeatherDisplay:10.37,2013-05-23 14:40:00,
2013-05-23 10:45:00,71.1,64.6,29.52,South,175,10.4,10.4,80,0.00,CLR,,0.02,WeatherDisplay:10.37,2013-05-23 14:45:00,
2013-05-23 10:50:00,71.8,63.8,29.52,South,185,11.5,11.5,76,0.00,CLR,,0.02,WeatherDisplay:10.37,2013-05-23 14:50:00,
2013-05-23 10:55:00,72.2,64.2,29.52,SSW,194,11.5,11.5,76,0.00,CLR,,0.02,WeatherDisplay:10.37,2013-05-23 14:55:00,
2013-05-23 11:00:00,72.4,62.9,29.51,South,174,13.8,13.8,72,0.00,CLR,,0.02,WeatherDisplay:10.37,2013-05-23 15:00:00,
2013-05-23 11:05:00,72.8,64.0,29.51,South,184,10.4,10.4,74,0.00,CLR,,0.02,WeatherDisplay:10.37,2013-05-23 15:05:00,
2013-05-23 11:10:00,73.1,63.9,29.51,SSW,203,10.4,10.4,73,0.00,CLR,,0.02,WeatherDisplay:10.37,2013-05-23 15:10:00,
2013-05-23 11:15:00,73.9,63.1,29.51,SSE,157,13.8,13.8,69,0.00,CLR,,0.02,WeatherDisplay:10.37,2013-05-23 15:15:00,
2013-05-23 11:20:00,73.9,63.1,29.51,South,189,10.4,10.4,69,0.00,CLR,,0.02,WeatherDisplay:10.37,2013-05-23 15:20:00,
2013-05-23 11:25:00,73.9,63.1,29.51,SSW,212,15.0,15.0,69,0.00,CLR,,0.02,WeatherDisplay:10.37,2013-05-23 15:25:00,
2013-05-23 11:30:00,74.1,63.3,29.51,SSE,153,9.2,9.2,69,0.00,CLR,,0.02,WeatherDisplay:10.37,2013-05-23 15:30:00,
2013-05-23 11:35:00,74.1,62.9,29.51,SSE,168,13.0,13.0,68,0.00,CLR,,0.02,WeatherDisplay:10.37,2013-05-23 15:35:00,
2013-05-23 11:40:00,74.1,63.3,29.51,South,180,13.0,13.0,69,0.00,CLR,,0.02,WeatherDisplay:10.37,2013-05-23 15:40:00,
2013-05-23 11:45:00,74.8,63.1,29.51,SSE,153,15.0,15.0,67,0.00,CLR,,0.02,WeatherDisplay:10.37,2013-05-23 15:45:00,
2013-05-23 11:50:00,74.2,63.0,29.51,SSE,159,10.4,10.4,68,0.00,CLR,,0.02,WeatherDisplay:10.37,2013-05-23 15:50:00,
2013-05-23 11:55:00,73.9,63.1,29.51,South,184,11.5,11.5,69,0.00,CLR,,0.02,WeatherDisplay:10.37,2013-05-23 15:55:00,
2013-05-23 12:00:00,73.9,63.1,29.52,South,182,8.1,8.1,69,0.00,CLR,,0.02,WeatherDisplay:10.37,2013-05-23 16:00:00,
2013-05-23 12:05:00,74.0,63.6,29.51,SE,132,11.5,11.5,70,0.00,CLR,,0.02,WeatherDisplay:10.37,2013-05-23 16:05:00,
2013-05-23 12:10:00,73.8,63.4,29.51,SE,134,12.7,12.7,70,0.00,CLR,,0.02,WeatherDisplay:10.37,2013-05-23 16:10:00,
2013-05-23 12:15:00,73.7,63.7,29.51,ESE,115,11.5,11.5,71,0.00,CLR,,0.02,WeatherDisplay:10.37,2013-05-23 16:15:00,
2013-05-23 12:20:00,73.7,63.3,29.51,South,170,14.0,14.0,70,0.00,CLR,,0.02,WeatherDisplay:10.37,2013-05-23 16:20:00,
2013-05-23 12:25:00,73.8,63.4,29.51,South,182,12.7,12.7,70,0.00,CLR,,0.02,WeatherDisplay:10.37,2013-05-23 16:25:00,
2013-05-23 12:30:00,73.9,63.1,29.51,South,181,16.1,16.1,69,0.00,CLR,,0.02,WeatherDisplay:10.37,2013-05-23 16:30:00,
2013-05-23 12:35:00,73.8,63.0,29.51,South,174,12.7,12.7,69,0.00,CLR,,0.03,WeatherDisplay:10.37,2013-05-23 16:35:00,
2013-05-23 12:40:00,73.8,63.4,29.51,South,185,16.1,16.1,70,0.01,RA,,0.03,WeatherDisplay:10.37,2013-05-23 16:40:00,
2013-05-23 12:45:00,73.7,62.9,29.51,South,176,15.0,15.0,69,0.01,RA,,0.03,WeatherDisplay:10.37,2013-05-23 16:45:00,
2013-05-23 12:50:00,73.3,62.9,29.51,South,173,12.0,12.0,70,0.01,CLR,,0.03,WeatherDisplay:10.37,2013-05-23 16:50:00,
2013-05-23 12:55:00,73.4,63.4,29.51,SSE,165,9.2,9.2,71,0.01,CLR,,0.03,WeatherDisplay:10.37,2013-05-23 16:55:00,
2013-05-23 13:00:00,73.2,63.2,29.51,ESE,118,10.4,10.4,71,0.01,CLR,,0.03,WeatherDisplay:10.37,2013-05-23 17:00:00,
2013-05-23 13:05:00,73.3,62.5,29.50,South,183,11.5,11.5,69,0.01,CLR,,0.03,WeatherDisplay:10.37,2013-05-23 17:05:00,
2013-05-23 13:10:00,73.1,62.7,29.50,SSE,167,11.5,11.5,70,0.01,CLR,,0.03,WeatherDisplay:10.37,2013-05-23 17:10:00,
2013-05-23 13:15:00,72.9,62.5,29.50,South,175,12.0,12.0,70,0.01,CLR,,0.03,WeatherDisplay:10.37,2013-05-23 17:15:00,
2013-05-23 13:20:00,72.7,62.8,29.50,South,175,11.5,11.5,71,0.01,CLR,,0.03,WeatherDisplay:10.37,2013-05-23 17:20:00,
2013-05-23 13:25:00,72.5,63.0,29.50,South,170,13.8,13.8,72,0.01,CLR,,0.03,WeatherDisplay:10.37,2013-05-23 17:25:00,
2013-05-23 13:30:00,72.2,62.7,29.50,South,186,12.0,12.0,72,0.01,CLR,,0.03,WeatherDisplay:10.37,2013-05-23 17:30:00,
2013-05-23 13:35:00,72.1,62.6,29.50,SSE,167,11.5,11.5,72,0.01,CLR,,0.03,WeatherDisplay:10.37,2013-05-23 17:35:00,
2013-05-23 13:40:00,71.9,62.8,29.50,South,171,10.0,10.0,73,0.00,CLR,,0.03,WeatherDisplay:10.37,2013-05-23 17:40:00,
2013-05-23 13:45:00,71.6,62.5,29.50,South,173,9.2,9.2,73,0.00,CLR,,0.03,WeatherDisplay:10.37,2013-05-23 17:45:00,
2013-05-23 13:50:00,71.6,62.5,29.50,SSE,165,15.0,15.0,73,0.00,CLR,,0.03,WeatherDisplay:10.37,2013-05-23 17:50:00,
2013-05-23 13:55:00,71.7,63.0,29.50,South,169,9.2,9.2,74,0.00,CLR,,0.03,WeatherDisplay:10.37,2013-05-23 17:55:00,
2013-05-23 14:00:00,71.9,63.2,29.49,SE,142,7.0,7.0,74,0.00,CLR,,0.03,WeatherDisplay:10.37,2013-05-23 18:00:00,
2013-05-23 14:05:00,72.1,63.0,29.49,South,173,9.2,9.2,73,0.00,CLR,,0.03,WeatherDisplay:10.37,2013-05-23 18:05:00,
2013-05-23 14:10:00,72.7,64.3,29.49,SE,127,9.2,9.2,75,0.00,CLR,,0.03,WeatherDisplay:10.37,2013-05-23 18:10:00,
2013-05-23 14:15:00,73.1,63.5,29.48,SSE,162,11.5,11.5,72,0.00,CLR,,0.03,WeatherDisplay:10.37,2013-05-23 18:15:00,
2013-05-23 14:20:00,73.8,63.8,29.48,SSE,154,8.1,8.1,71,0.00,CLR,,0.03,WeatherDisplay:10.37,2013-05-23 18:20:00,
2013-05-23 14:25:00,74.2,63.8,29.48,SSE,159,8.1,8.1,70,0.00,CLR,,0.03,WeatherDisplay:10.37,2013-05-23 18:25:00,
2013-05-23 14:30:00,75.2,63.5,29.48,SSW,192,15.0,15.0,67,0.00,CLR,,0.03,WeatherDisplay:10.37,2013-05-23 18:30:00,
2013-05-23 14:35:00,75.0,63.3,29.48,South,181,13.8,13.8,67,0.00,CLR,,0.03,WeatherDisplay:10.37,2013-05-23 18:35:00,
2013-05-23 14:40:00,74.9,63.6,29.48,SSE,162,16.0,16.0,68,0.00,CLR,,0.03,WeatherDisplay:10.37,2013-05-23 18:40:00,
2013-05-23 14:45:00,75.3,64.4,29.48,South,188,15.0,15.0,69,0.00,CLR,,0.03,WeatherDisplay:10.37,2013-05-23 18:45:00,
2013-05-23 14:50:00,75.7,64.8,29.47,SE,142,16.0,16.0,69,0.00,CLR,,0.03,WeatherDisplay:10.37,2013-05-23 18:50:00,
2013-05-23 14:56:00,75.4,63.2,29.47,South,188,17.3,17.3,66,0.00,CLR,,0.03,WeatherDisplay:10.37,2013-05-23 18:56:00,
2013-05-23 15:01:00,76.1,64.8,29.47,SSE,161,12.0,12.0,68,0.00,CLR,,0.03,WeatherDisplay:10.37,2013-05-23 19:01:00,
2013-05-23 15:06:00,76.3,64.1,29.46,South,182,15.0,15.0,66,0.00,CLR,,0.03,WeatherDisplay:10.37,2013-05-23 19:06:00,
2013-05-23 15:11:00,76.2,63.6,29.46,South,169,12.0,12.0,65,0.00,CLR,,0.03,WeatherDisplay:10.37,2013-05-23 19:11:00,
2013-05-23 15:16:00,76.2,63.6,29.46,SSE,157,18.4,18.4,65,0.00,CLR,,0.03,WeatherDisplay:10.37,2013-05-23 19:16:00,
2013-05-23 15:21:00,76.8,63.2,29.46,SSW,196,11.5,11.5,63,0.00,CLR,,0.03,WeatherDisplay:10.37,2013-05-23 19:21:00,
2013-05-23 15:26:00,76.4,63.3,29.45,South,170,17.3,17.3,64,0.00,CLR,,0.03,WeatherDisplay:10.37,2013-05-23 19:26:00,
2013-05-23 15:31:00,76.6,62.6,29.45,SSW,200,19.6,19.6,62,0.00,CLR,,0.03,WeatherDisplay:10.37,2013-05-23 19:31:00,
2013-05-23 15:36:00,76.7,63.2,29.45,SSE,168,16.0,16.0,63,0.00,CLR,,0.03,WeatherDisplay:10.37,2013-05-23 19:36:00,
2013-05-23 15:41:00,76.9,62.4,29.45,South,185,15.0,15.0,61,0.00,CLR,,0.03,WeatherDisplay:10.37,2013-05-23 19:41:00,
2013-05-23 15:46:00,76.3,62.3,29.45,SSE,159,10.4,10.4,62,0.00,CLR,,0.03,WeatherDisplay:10.37,2013-05-23 19:46:00,
2013-05-23 15:51:00,76.4,62.9,29.45,South,181,12.7,12.7,63,0.00,CLR,,0.03,WeatherDisplay:10.37,2013-05-23 19:51:00,
2013-05-23 15:56:00,76.6,62.6,29.45,South,177,11.0,11.0,62,0.00,CLR,,0.03,WeatherDisplay:10.37,2013-05-23 19:56:00,
2013-05-23 16:01:00,75.9,62.4,29.45,South,182,10.4,10.4,63,0.00,CLR,,0.03,WeatherDisplay:10.37,2013-05-23 20:01:00,
2013-05-23 16:06:00,75.7,62.7,29.44,South,174,11.5,11.5,64,0.00,CLR,,0.03,WeatherDisplay:10.37,2013-05-23 20:06:00,
2013-05-23 16:11:00,76.2,63.6,29.44,SSE,167,10.4,10.4,65,0.00,CLR,,0.03,WeatherDisplay:10.37,2013-05-23 20:11:00,
2013-05-23 16:16:00,76.4,63.3,29.44,SSE,163,12.7,12.7,64,0.00,CLR,,0.03,WeatherDisplay:10.37,2013-05-23 20:16:00,
2013-05-23 16:21:00,76.1,63.5,29.44,SSW,192,11.5,11.5,65,0.00,CLR,,0.03,WeatherDisplay:10.37,2013-05-23 20:21:00,
2013-05-23 16:26:00,75.8,63.2,29.44,SSE,161,13.0,13.0,65,0.00,CLR,,0.03,WeatherDisplay:10.37,2013-05-23 20:26:00,
2013-05-23 16:31:00,75.5,63.8,29.45,SSE,158,10.4,10.4,67,0.00,CLR,,0.03,WeatherDisplay:10.37,2013-05-23 20:31:00,
2013-05-23 16:36:00,75.1,61.6,29.47,SW,224,31.1,31.1,63,0.00,CLR,,0.03,WeatherDisplay:10.37,2013-05-23 20:36:00,
2013-05-23 16:41:00,73.2,58.5,29.47,West,277,26.5,26.5,60,0.00,CLR,,0.03,WeatherDisplay:10.37,2013-05-23 20:41:00,
2013-05-23 16:46:00,70.9,58.1,29.47,SW,220,17.3,17.3,64,0.00,CLR,,0.03,WeatherDisplay:10.37,2013-05-23 20:46:00,
2013-05-23 16:51:00,69.5,57.6,29.47,West,264,11.0,11.0,66,0.00,CLR,,0.03,WeatherDisplay:10.37,2013-05-23 20:51:00,
2013-05-23 16:56:00,68.8,60.2,29.48,West,271,12.7,12.7,74,0.00,CLR,,0.04,WeatherDisplay:10.37,2013-05-23 20:56:00,
2013-05-23 17:01:00,66.6,59.2,29.47,WSW,246,10.4,10.4,77,0.01,RA,,0.04,WeatherDisplay:10.37,2013-05-23 21:01:00,
2013-05-23 17:06:00,65.4,59.4,29.47,SW,227,10.0,10.0,81,0.02,RA,,0.05,WeatherDisplay:10.37,2013-05-23 21:06:00,
2013-05-23 17:11:00,64.7,59.8,29.47,SW,225,8.1,8.1,84,0.04,RA,,0.07,WeatherDisplay:10.37,2013-05-23 21:11:00,
2013-05-23 17:16:00,64.4,59.5,29.47,SW,214,9.2,9.2,84,0.04,RA,,0.07,WeatherDisplay:10.37,2013-05-23 21:16:00,
2013-05-23 17:21:00,64.2,59.6,29.48,SW,221,12.0,12.0,85,0.05,RA,,0.08,WeatherDisplay:10.37,2013-05-23 21:21:00,
2013-05-23 17:26:00,63.9,59.6,29.46,SW,217,10.4,10.4,86,0.08,RA,,0.12,WeatherDisplay:10.37,2013-05-23 21:26:00,
2013-05-23 17:31:00,63.4,59.5,29.46,SSW,200,4.0,4.0,87,0.10,RA,,0.13,WeatherDisplay:10.37,2013-05-23 21:31:00,
2013-05-23 17:36:00,63.4,59.8,29.46,SSW,198,4.0,4.0,88,0.11,RA,,0.14,WeatherDisplay:10.37,2013-05-23 21:36:00,
2013-05-23 17:41:00,63.5,60.2,29.47,SSW,193,4.0,4.0,89,0.11,RA,,0.14,WeatherDisplay:10.37,2013-05-23 21:41:00,
2013-05-23 17:46:00,63.4,59.8,29.47,SSW,197,3.5,3.5,88,0.11,,,0.14,WeatherDisplay:10.37,2013-05-23 21:46:00,
2013-05-23 17:51:00,63.4,60.1,29.47,SSW,207,2.3,2.3,89,0.11,CLR,,0.14,WeatherDisplay:10.37,2013-05-23 21:51:00,
2013-05-23 17:56:00,63.5,60.2,29.47,SSW,207,2.3,0.0,89,0.11,CLR,,0.14,WeatherDisplay:10.37,2013-05-23 21:56:00,
2013-05-23 18:01:00,63.6,60.3,29.47,SSW,200,1.0,1.0,89,0.10,CLR,,0.14,WeatherDisplay:10.37,2013-05-23 22:01:00,
2013-05-23 18:06:00,63.5,60.2,29.48,South,188,1.2,1.2,89,0.09,CLR,,0.14,WeatherDisplay:10.37,2013-05-23 22:06:00,
2013-05-23 18:11:00,63.4,60.4,29.48,SE,142,3.5,3.5,90,0.07,CLR,,0.14,WeatherDisplay:10.37,2013-05-23 22:11:00,
2013-05-23 18:16:00,63.4,60.7,29.48,SE,144,3.5,3.5,91,0.07,CLR,,0.14,WeatherDisplay:10.37,2013-05-23 22:16:00,
2013-05-23 18:21:00,63.2,60.5,29.48,SSE,153,1.2,1.2,91,0.06,CLR,,0.14,WeatherDisplay:10.37,2013-05-23 22:21:00,
2013-05-23 18:26:00,63.2,60.8,29.48,SSE,153,2.3,2.3,92,0.04,RA,,0.15,WeatherDisplay:10.37,2013-05-23 22:26:00,
2013-05-23 18:31:00,62.9,60.5,29.48,SSE,153,3.0,3.0,92,0.03,RA,,0.16,WeatherDisplay:10.37,2013-05-23 22:31:00,
2013-05-23 18:36:00,62.8,60.4,29.48,SSE,153,1.2,0.0,92,0.03,RA,,0.17,WeatherDisplay:10.37,2013-05-23 22:36:00,
2013-05-23 18:42:00,62.9,60.5,29.48,SSE,153,2.0,2.0,92,0.04,RA,,0.18,WeatherDisplay:10.37,2013-05-23 22:42:00,
2013-05-23 18:47:00,62.9,60.5,29.48,SSE,153,2.3,2.3,92,0.05,RA,,0.19,WeatherDisplay:10.37,2013-05-23 22:47:00,
2013-05-23 18:52:00,62.9,60.5,29.48,SSE,153,0.0,0.0,92,0.06,RA,,0.20,WeatherDisplay:10.37,2013-05-23 22:52:00,
2013-05-23 18:57:00,62.8,60.4,29.48,SSE,153,0.0,0.0,92,0.07,RA,,0.22,WeatherDisplay:10.37,2013-05-23 22:57:00,
2013-05-23 19:02:00,62.9,60.5,29.48,SSE,153,0.0,0.0,92,0.08,RA,,0.22,WeatherDisplay:10.37,2013-05-23 23:02:00,
2013-05-23 19:07:00,62.9,60.5,29.48,SSE,153,2.3,2.3,92,0.08,RA,,0.22,WeatherDisplay:10.37,2013-05-23 23:07:00,
2013-05-23 19:12:00,63.1,60.7,29.48,SSE,153,2.0,2.0,92,0.08,CLR,,0.22,WeatherDisplay:10.37,2013-05-23 23:12:00,
2013-05-23 19:17:00,63.2,60.8,29.48,SSE,153,3.5,3.5,92,0.08,CLR,,0.23,WeatherDisplay:10.37,2013-05-23 23:17:00,
2013-05-23 19:22:00,63.3,61.2,29.49,SE,141,3.5,3.5,93,0.09,RA,,0.23,WeatherDisplay:10.37,2013-05-23 23:22:00,
2013-05-23 19:27:00,63.0,60.6,29.49,SE,132,3.5,3.5,92,0.08,RA,,0.23,WeatherDisplay:10.37,2013-05-23 23:27:00,
2013-05-23 19:32:00,62.8,60.7,29.49,SE,132,0.0,0.0,93,0.07,CLR,,0.23,WeatherDisplay:10.37,2013-05-23 23:32:00,
2013-05-23 19:37:00,62.8,60.7,29.49,SE,132,0.0,0.0,93,0.06,CLR,,0.23,WeatherDisplay:10.37,2013-05-23 23:37:00,
2013-05-23 19:42:00,62.8,60.7,29.49,SE,132,0.0,0.0,93,0.06,RA,,0.24,WeatherDisplay:10.37,2013-05-23 23:42:00,
2013-05-23 19:47:00,62.9,60.8,29.49,SE,132,0.0,0.0,93,0.05,RA,,0.24,WeatherDisplay:10.37,2013-05-23 23:47:00,
2013-05-23 19:52:00,62.9,60.8,29.49,SE,132,0.0,0.0,93,0.04,CLR,,0.24,WeatherDisplay:10.37,2013-05-23 23:52:00,
2013-05-23 19:57:00,63.1,61.0,29.50,SE,132,3.0,3.0,93,0.03,CLR,,0.24,WeatherDisplay:10.37,2013-05-23 23:57:00,
2013-05-23 20:02:00,63.0,60.9,29.50,NNE,13,3.5,3.5,93,0.02,CLR,,0.24,WeatherDisplay:10.37,2013-05-24 00:02:00,
2013-05-23 20:07:00,62.9,60.8,29.49,NNW,335,2.3,2.3,93,0.02,CLR,,0.24,WeatherDisplay:10.37,2013-05-24 00:07:00,
2013-05-23 20:12:00,62.8,61.0,29.49,NNW,335,1.2,1.2,94,0.02,CLR,,0.24,WeatherDisplay:10.37,2013-05-24 00:12:00,
2013-05-23 20:17:00,62.8,61.0,29.49,NNW,335,0.0,0.0,94,0.02,CLR,,0.24,WeatherDisplay:10.37,2013-05-24 00:17:00,
2013-05-23 20:22:00,62.7,60.9,29.49,NNW,335,0.0,0.0,94,0.01,CLR,,0.24,WeatherDisplay:10.37,2013-05-24 00:22:00,
2013-05-23 20:27:00,62.7,60.9,29.49,NNW,335,0.0,0.0,94,0.01,CLR,,0.24,WeatherDisplay:10.37,2013-05-24 00:27:00,
2013-05-23 20:32:00,62.7,60.9,29.49,NNW,335,0.0,0.0,94,0.01,CLR,,0.24,WeatherDisplay:10.37,2013-05-24 00:32:00,
2013-05-23 20:37:00,62.8,61.0,29.49,NNW,335,0.0,0.0,94,0.01,CLR,,0.24,WeatherDisplay:10.37,2013-05-24 00:37:00,
2013-05-23 20:42:00,62.7,60.9,29.49,NNW,335,0.0,0.0,94,0.00,CLR,,0.24,WeatherDisplay:10.37,2013-05-24 00:42:00,
2013-05-23 20:47:00,63.1,61.3,29.49,NNW,335,0.0,0.0,94,0.00,CLR,,0.24,WeatherDisplay:10.37,2013-05-24 00:47:00,
2013-05-23 20:52:00,63.2,61.4,29.49,NNW,335,0.0,0.0,94,0.00,CLR,,0.24,WeatherDisplay:10.37,2013-05-24 00:52:00,
2013-05-23 20:57:00,63.2,61.4,29.48,NNW,335,0.0,0.0,94,0.00,CLR,,0.24,WeatherDisplay:10.37,2013-05-24 00:57:00,
2013-05-23 21:02:00,63.2,61.4,29.48,NNW,335,0.0,0.0,94,0.00,CLR,,0.24,WeatherDisplay:10.37,2013-05-24 01:02:00,
2013-05-23 21:07:00,63.1,61.3,29.48,NNW,335,0.0,0.0,94,0.01,RA,,0.25,WeatherDisplay:10.37,2013-05-24 01:07:00,
2013-05-23 21:12:00,62.9,61.1,29.48,NNW,335,0.0,0.0,94,0.01,RA,,0.25,WeatherDisplay:10.37,2013-05-24 01:12:00,
2013-05-23 21:17:00,62.7,60.9,29.47,NNW,335,0.0,0.0,94,0.01,CLR,,0.25,WeatherDisplay:10.37,2013-05-24 01:17:00,
2013-05-23 21:22:00,62.6,60.8,29.47,NNW,335,0.0,0.0,94,0.01,CLR,,0.25,WeatherDisplay:10.37,2013-05-24 01:22:00,
2013-05-23 21:27:00,62.6,60.8,29.47,NNW,335,0.0,0.0,94,0.01,CLR,,0.25,WeatherDisplay:10.37,2013-05-24 01:27:00,
2013-05-23 21:32:00,62.5,60.7,29.47,NNW,335,0.0,0.0,94,0.01,CLR,,0.25,WeatherDisplay:10.37,2013-05-24 01:32:00,
2013-05-23 21:37:00,62.3,60.6,29.48,NNW,335,0.0,0.0,94,0.01,CLR,,0.25,WeatherDisplay:10.37,2013-05-24 01:37:00,
2013-05-23 21:42:00,62.5,61.0,29.48,NNW,335,0.0,0.0,95,0.01,CLR,,0.25,WeatherDisplay:10.37,2013-05-24 01:42:00,
2013-05-23 21:47:00,62.6,61.1,29.48,NNW,335,0.0,0.0,95,0.01,CLR,,0.25,WeatherDisplay:10.37,2013-05-24 01:47:00,
2013-05-23 21:52:00,62.5,61.0,29.48,NNW,335,0.0,0.0,95,0.01,CLR,,0.25,WeatherDisplay:10.37,2013-05-24 01:52:00,
2013-05-23 21:57:00,62.5,61.0,29.48,NNW,335,0.0,0.0,95,0.01,CLR,,0.25,WeatherDisplay:10.37,2013-05-24 01:57:00,
2013-05-23 22:02:00,62.7,61.2,29.48,NNW,335,0.0,0.0,95,0.01,CLR,,0.25,WeatherDisplay:10.37,2013-05-24 02:02:00,
2013-05-23 22:07:00,62.5,61.0,29.47,NNW,335,0.0,0.0,95,0.01,RA,,0.26,WeatherDisplay:10.37,2013-05-24 02:07:00,
2013-05-23 22:12:00,62.6,61.1,29.48,NNW,335,0.0,0.0,95,0.01,RA,,0.26,WeatherDisplay:10.37,2013-05-24 02:12:00,
2013-05-23 22:17:00,62.7,61.2,29.48,NNW,335,0.0,0.0,95,0.01,,,0.26,WeatherDisplay:10.37,2013-05-24 02:17:00,
2013-05-23 22:22:00,62.7,61.2,29.48,NNW,335,0.0,0.0,95,0.01,CLR,,0.26,WeatherDisplay:10.37,2013-05-24 02:22:00,
2013-05-23 22:27:00,62.7,61.2,29.48,NNW,335,0.0,0.0,95,0.01,CLR,,0.26,WeatherDisplay:10.37,2013-05-24 02:27:00,
2013-05-23 22:32:00,62.5,61.0,29.47,NNW,335,0.0,0.0,95,0.01,CLR,,0.26,WeatherDisplay:10.37,2013-05-24 02:32:00,
2013-05-23 22:37:00,62.5,61.0,29.47,NNW,335,0.0,0.0,95,0.01,CLR,,0.26,WeatherDisplay:10.37,2013-05-24 02:37:00,
2013-05-23 22:42:00,62.5,61.0,29.47,NNW,335,0.0,0.0,95,0.01,CLR,,0.26,WeatherDisplay:10.37,2013-05-24 02:42:00,
2013-05-23 22:47:00,62.4,60.9,29.47,NNW,335,0.0,0.0,95,0.01,CLR,,0.26,WeatherDisplay:10.37,2013-05-24 02:47:00,
2013-05-23 22:52:00,62.3,60.8,29.48,NNW,335,0.0,0.0,95,0.01,CLR,,0.26,WeatherDisplay:10.37,2013-05-24 02:52:00,
2013-05-23 22:57:00,62.5,61.0,29.48,NNW,335,0.0,0.0,95,0.01,CLR,,0.26,WeatherDisplay:10.37,2013-05-24 02:57:00,
2013-05-23 23:02:00,62.5,61.0,29.48,NNW,335,0.0,0.0,95,0.01,CLR,,0.26,WeatherDisplay:10.37,2013-05-24 03:02:00,
2013-05-23 23:07:00,62.5,61.0,29.48,NNW,335,0.0,0.0,95,0.00,CLR,,0.26,WeatherDisplay:10.37,2013-05-24 03:07:00,
2013-05-23 23:12:00,62.4,60.9,29.48,NNW,335,0.0,0.0,95,0.00,CLR,,0.26,WeatherDisplay:10.37,2013-05-24 03:12:00,
2013-05-23 23:17:00,62.5,61.0,29.48,NNW,335,0.0,0.0,95,0.00,CLR,,0.26,WeatherDisplay:10.37,2013-05-24 03:17:00,
2013-05-23 23:22:00,62.5,61.0,29.47,North,5,1.0,1.0,95,0.00,CLR,,0.26,WeatherDisplay:10.37,2013-05-24 03:22:00,
2013-05-23 23:27:00,62.5,61.0,29.47,NNE,19,1.2,1.2,95,0.00,CLR,,0.26,WeatherDisplay:10.37,2013-05-24 03:27:00,
2013-05-23 23:32:00,62.5,61.0,29.47,NNE,19,0.0,0.0,95,0.00,CLR,,0.26,WeatherDisplay:10.37,2013-05-24 03:32:00,
2013-05-23 23:37:00,62.5,61.0,29.47,NNE,19,0.0,0.0,95,0.00,CLR,,0.26,WeatherDisplay:10.37,2013-05-24 03:37:00,
2013-05-23 23:42:00,62.5,61.0,29.47,NNE,19,0.0,0.0,95,0.00,CLR,,0.26,WeatherDisplay:10.37,2013-05-24 03:42:00,
2013-05-23 23:47:00,62.4,60.9,29.47,NNE,19,0.0,0.0,95,0.00,CLR,,0.26,WeatherDisplay:10.37,2013-05-24 03:47:00,
2013-05-23 23:52:00,62.3,60.8,29.47,NNE,19,0.0,0.0,95,0.00,CLR,,0.26,WeatherDisplay:10.37,2013-05-24 03:52:00,
2013-05-23 23:57:00,62.3,60.8,29.46,NNE,19,0.0,0.0,95,0.00,CLR,,0.26,WeatherDisplay:10.37,2013-05-24 03:57:00,